Flight Track Log - Related Links

Times and Time Zones

All times are in EDT time to prevent confusion due to time zone crossing. See the N795UA flight status page for this flight to view local times or setup timezone preferences in your user account.

Time Position Orientation Groundspeed Altitude Reporting Facility
EDT Latitude Longitude Course Direction KTS MPH feet Rate Location/Type
Wed 05:34:15 PM 37.6370 -122.4043 292° West  Level FlightAware Approximate
Wed 05:35:15 PM 37.6946 -122.5279 130° Southeast  Level FlightAware Approximate
Wed 05:36:32 PM 37.6594 -122.4742 308° West 183 211 2,900  Level Oakland Center
Wed 05:37:32 PM 37.7003 -122.5406 307° West 215 247 4,900 2,200 Climbing Oakland Center
Wed 05:38:32 PM 37.7453 -122.6150 303° West 245 282 7,300 2,450 Climbing Oakland Center
Wed 05:39:32 PM 37.7858 -122.6947 304° West 263 303 9,800 2,100 Climbing Oakland Center
Wed 05:40:32 PM 37.8303 -122.7772 306° West 280 322 11,500 1,400 Climbing Oakland Center
Wed 05:41:32 PM 37.8853 -122.8733 309° West 309 356 12,600 1,650 Climbing Oakland Center
Wed 05:42:32 PM 37.9503 -122.9753 308° West 344 396 14,800 2,100 Climbing Oakland Center
Wed 05:43:32 PM 38.0153 -123.0797 306° West 363 418 16,800 1,850 Climbing Oakland Center
Wed 05:44:32 PM 38.0778 -123.1872 307° West 377 434 18,500 1,700 Climbing Oakland Center
Wed 05:45:32 PM 38.1425 -123.2972 308° West 383 441 20,200 1,450 Climbing Oakland Center
Wed 05:46:32 PM 38.2111 -123.4078 309° West 395 455 21,400 1,450 Climbing Oakland Center
Wed 05:47:32 PM 38.2839 -123.5242 308° West 406 467 23,100 1,450 Climbing Oakland Center
Wed 05:48:32 PM 38.3542 -123.6403 307° West 406 467 24,300 1,250 Climbing Oakland Center
Wed 05:49:32 PM 38.4267 -123.7625 307° West 420 483 25,600 1,350 Climbing Oakland Center
Wed 05:50:32 PM 38.5008 -123.8872 308° West 425 489 27,000 1,339 Climbing Oakland Center
Wed 05:51:33 PM 38.5747 -124.0072 307° West 430 495 28,300 1,050 Climbing Oakland Center
Wed 05:52:32 PM 38.6467 -124.1297 308° West 435 501 29,100 857 Climbing Oakland Center
Wed 05:53:32 PM 38.7206 -124.2528 306° West 435 501 30,000 450 Climbing Oakland Center
Wed 05:54:32 PM 38.7919 -124.3786 307° West 435 501 30,000 -50 Level Oakland Center
Wed 05:55:32 PM 38.8656 -124.5022 307° West 442 509 29,900  Descending Oakland Center
Wed 05:56:32 PM 38.9389 -124.6258 306° West 442 509 30,000 50 Climbing Oakland Center
Wed 05:57:32 PM 39.0119 -124.7553 307° West 442 509 30,000 250 Level Oakland Center
Wed 05:58:32 PM 39.0853 -124.8794 308° West 442 509 30,500 950 Climbing Oakland Center
Wed 05:59:32 PM 39.1603 -125.0014 306° West 442 509 31,900 750 Climbing Oakland Center
Wed 06:00:32 PM 39.2292 -125.1233 306° West 436 502 32,000  Climbing Oakland Center
Wed 06:01:32 PM 39.2958 -125.2400 309° West 424 488 31,900 -50 Descending Oakland Center
Wed 06:02:32 PM 39.3689 -125.3572 303° West 419 482 31,900 50 Level Oakland Center
Wed 06:03:32 PM 39.4308 -125.4819 306° West 419 482 32,000  Climbing Oakland Center
Wed 06:04:32 PM 39.4894 -125.5853 306° West 414 476 31,900  Descending Oakland Center
Wed 06:05:32 PM 39.5556 -125.7053 307° West 414 476 32,000  Climbing Oakland Center
Wed 06:06:32 PM 39.6236 -125.8231 307° West 414 476 31,900 -50 Descending Oakland Center
Wed 06:07:32 PM 39.6919 -125.9414 304° West 414 476 31,900 50 Level Oakland Center
Wed 06:08:32 PM 39.7614 -126.0731 315° West 414 476 32,000  Climbing Oakland Center
Wed 06:09:32 PM 39.8325 -126.1647 309° West 414 476 31,900 -50 Descending Oakland Center
Wed 06:10:32 PM 39.9025 -126.2783 305° West 408 470 31,900 50 Level Oakland Center
Wed 06:11:32 PM 39.9639 -126.3942 294° West 399 459 32,000 56 Climbing Oakland Center
Wed 06:12:20 PM 40.0000 -126.5000 315° West 402 463 32,000  Level Oakland Oceanic (ODAPS)
Wed 06:13:32 PM 40.0950 -126.6242 309° West 394 453 32,000  Level Oakland Center
Wed 06:14:32 PM 40.1667 -126.7386 308° West 394 453 32,000  Level Oakland Center
Wed 06:15:32 PM 40.2342 -126.8503 300° West 399 459 32,000  Level Oakland Center
Wed 06:16:42 PM 40.3000 -127.0000 308° West 403 464 32,000  Level Oakland Oceanic (ODAPS)
Wed 06:21:59 PM 40.6667 -127.6167 307° West 395 455 32,000  Level Oakland Oceanic (ODAPS)
Wed 06:36:10 PM 41.5667 -129.2167 307° West 389 448 32,000  Level Oakland Oceanic (ODAPS)
Wed 06:43:20 PM 42.0000 -130.0000 302° West 406 467 32,000  Level Oakland Oceanic (ODAPS)
Wed 06:49:49 PM 42.4000 -130.8667 302° West 414 476 32,000  Level Oakland Oceanic (ODAPS)
Wed 07:03:59 PM 43.1667 -132.5833 301° West 417 480 32,000  Level Oakland Oceanic (ODAPS)
Wed 07:17:33 PM 43.9667 -134.4667 299° West 439 505 32,000  Level Oakland Oceanic (ODAPS)
Wed 07:31:26 PM 44.7833 -136.5833 298° West 450 518 32,000 72 Level Oakland Oceanic (ODAPS)
Wed 07:45:18 PM 45.5667 -138.7333 297° West 435 501 34,000 90 Climbing Oakland Oceanic (ODAPS)
Wed 07:53:33 PM 46.0000 -140.0000 281° West 434 499 34,000  Level Oakland Oceanic (ODAPS)
Wed 07:59:10 PM 46.1333 -140.9833 281° West 429 494 34,000  Level Oakland Oceanic (ODAPS)
Wed 08:13:02 PM 46.4333 -143.3333 280° West 429 494 34,000  Level Oakland Oceanic (ODAPS)
Wed 08:26:55 PM 46.6833 -145.7167 278° West 438 504 34,000  Level Oakland Oceanic (ODAPS)
Wed 08:40:46 PM 46.8833 -148.1167 276° West 433 498 34,000  Level Oakland Oceanic (ODAPS)
Wed 08:51:47 PM 47.0000 -150.0000 273° West 425 489 34,000  Level Oakland Oceanic (ODAPS)
Wed 08:54:38 PM 47.0167 -150.5000 273° West 425 489 34,000  Level Oakland Oceanic (ODAPS)
Wed 09:08:39 PM 47.0833 -152.8333 272° West 429 494 34,000  Level Oakland Oceanic (ODAPS)
Wed 09:22:23 PM 47.1167 -155.2500 270° West 440 506 34,000  Level Oakland Oceanic (ODAPS)
Wed 09:36:38 PM 47.0833 -157.7500 268° West 447 514 34,000  Level Oakland Oceanic (ODAPS)
Wed 09:48:46 PM 47.0000 -160.0000 265° West 456 525 34,000  Level Oakland Oceanic (ODAPS)
Wed 09:50:08 PM 46.9833 -160.2667 265° West 462 532 34,000  Level Oakland Oceanic (ODAPS)
Wed 10:03:59 PM 46.8167 -162.7833 263° West 458 527 34,000  Level Oakland Oceanic (ODAPS)
Wed 10:17:52 PM 46.5833 -165.2833 262° West 462 532 34,000  Level Oakland Oceanic (ODAPS)
Wed 10:31:45 PM 46.3000 -167.8000 260° West 459 528 34,000  Level Oakland Oceanic (ODAPS)
Wed 10:44:06 PM 46.0000 -170.0000 266° West 466 536 34,000  Level Oakland Oceanic (ODAPS)
Wed 10:45:37 PM 45.9833 -170.3167 265° West 468 539 34,000  Level Oakland Oceanic (ODAPS)
Wed 10:59:35 PM 45.8000 -172.8833 264° West 469 540 34,000 72 Level Oakland Oceanic (ODAPS)
Wed 11:13:35 PM 45.5667 -175.4500 261° West 471 542 36,000 72 Climbing Oakland Oceanic (ODAPS)
Wed 11:27:27 PM 45.2667 -177.9833 260° West 469 540 36,000  Level Oakland Oceanic (ODAPS)
Wed 11:38:48 PM 45.0000 180.0000 259° West 458 527 36,000  Level Oakland Oceanic (ODAPS)
Wed 11:41:20 PM 44.9333 179.5333 258° West 452 520 36,000  Level Oakland Oceanic (ODAPS)
Wed 11:55:12 PM 44.5333 177.1333 256° West 450 518 36,000  Level Oakland Oceanic (ODAPS)
Thu 12:08:55 AM 44.0833 174.8000 254° West 448 516 36,000  Level Oakland Oceanic (ODAPS)
Thu 12:22:48 AM 43.6000 172.5500 253° West 441 507 36,000  Level Oakland Oceanic (ODAPS)
Thu 12:36:40 AM 43.0833 170.3500 252° West 434 499 36,000  Level Oakland Oceanic (ODAPS)
Thu 12:39:37 AM 43.0000 170.0000 258° West 447 514 36,000  Level Oakland Oceanic (ODAPS)
Thu 12:50:33 AM 42.7000 168.1333 257° West 451 519 36,000  Level Oakland Oceanic (ODAPS)
Thu 01:04:24 AM 42.3000 165.8833 255° West 462 532 36,000  Level Oakland Oceanic (ODAPS)
Thu 01:12:15 AM 42.0288 164.5144 255° West 462 532 36,000  Level FlightAware Transoceanic
Thu 01:13:15 AM 41.9948 164.3492 254° West 462 532 36,000  Level FlightAware Transoceanic
Thu 01:14:15 AM 41.9606 164.1843 254° West 462 532 36,000  Level FlightAware Transoceanic
Thu 01:15:15 AM 41.9262 164.0195 254° West 462 532 36,000  Level FlightAware Transoceanic
Thu 01:16:15 AM 41.8915 163.8549 254° West 462 532 36,000  Level FlightAware Transoceanic
Thu 01:17:15 AM 41.8566 163.6905 254° West 462 532 36,000  Level FlightAware Transoceanic
Thu 01:18:15 AM 41.8214 163.5262 254° West 462 532 36,000  Level FlightAware Transoceanic
Thu 01:19:15 AM 41.7860 163.3622 254° West 462 532 36,000  Level FlightAware Transoceanic
Thu 01:20:15 AM 41.7504 163.1983 254° West 462 532 36,000  Level FlightAware Transoceanic
Thu 01:21:15 AM 41.7146 163.0346 254° West 462 532 36,000  Level FlightAware Transoceanic
Thu 01:22:15 AM 41.6785 162.8711 253° West 462 532 36,000  Level FlightAware Transoceanic
Thu 01:23:15 AM 41.6422 162.7078 253° West 462 532 36,000  Level FlightAware Transoceanic
Thu 01:24:15 AM 41.6056 162.5446 253° West 462 532 36,000  Level FlightAware Transoceanic
Thu 01:25:15 AM 41.5688 162.3817 253° West 462 532 36,000  Level FlightAware Transoceanic
Thu 01:26:15 AM 41.5318 162.2189 253° West 462 532 36,000  Level FlightAware Transoceanic
Thu 01:27:15 AM 41.4946 162.0563 253° West 462 532 36,000  Level FlightAware Transoceanic
Thu 01:28:15 AM 41.4571 161.8939 253° West 462 532 36,000  Level FlightAware Transoceanic
Thu 01:29:15 AM 41.4194 161.7317 253° West 462 532 36,000  Level FlightAware Transoceanic
Thu 01:30:15 AM 41.3815 161.5697 253° West 462 532 36,000  Level FlightAware Transoceanic
Thu 01:31:15 AM 41.3434 161.4079 253° West 462 532 36,000  Level FlightAware Transoceanic
Thu 01:32:15 AM 41.3050 161.2462 252° West 462 532 36,000  Level FlightAware Transoceanic
Thu 01:33:15 AM 41.2664 161.0848 252° West 462 532 36,000  Level FlightAware Transoceanic
Thu 01:34:15 AM 41.2276 160.9235 252° West 462 532 36,000  Level FlightAware Transoceanic
Thu 01:35:15 AM 41.1885 160.7624 252° West 462 532 36,000  Level FlightAware Transoceanic
Thu 01:36:15 AM 41.1493 160.6016 252° West 462 532 36,000  Level FlightAware Transoceanic
Thu 01:37:15 AM 41.1098 160.4409 252° West 462 532 36,000  Level FlightAware Transoceanic
Thu 01:38:15 AM 41.0700 160.2804 252° West 462 532 36,000  Level FlightAware Transoceanic
Thu 01:39:15 AM 41.0301 160.1201 252° West 462 532 36,000  Level FlightAware Transoceanic
Thu 01:40:15 AM 40.9904 159.9593 253° West 462 532 36,000  Level FlightAware Transoceanic
Thu 01:41:15 AM 40.9518 159.7968 252° West 462 532 36,000  Level FlightAware Transoceanic
Thu 01:42:15 AM 40.9130 159.6345 252° West 462 532 36,000  Level FlightAware Transoceanic
Thu 01:43:15 AM 40.8740 159.4724 252° West 462 532 36,000  Level FlightAware Transoceanic
Thu 01:44:15 AM 40.8347 159.3104 252° West 462 532 36,000  Level FlightAware Transoceanic
Thu 01:45:15 AM 40.7952 159.1487 252° West 462 532 36,000  Level FlightAware Transoceanic
Thu 01:46:15 AM 40.7555 158.9871 252° West 462 532 36,000  Level FlightAware Transoceanic
Thu 01:47:15 AM 40.7156 158.8258 252° West 462 532 36,000  Level FlightAware Transoceanic
Thu 01:48:15 AM 40.6754 158.6646 252° West 462 532 36,000  Level FlightAware Transoceanic
Thu 01:49:15 AM 40.6351 158.5036 252° West 462 532 36,000  Level FlightAware Transoceanic
Thu 01:50:15 AM 40.5945 158.3429 252° West 462 532 36,000  Level FlightAware Transoceanic
Thu 01:51:15 AM 40.5536 158.1823 251° West 462 532 36,000  Level FlightAware Transoceanic
Thu 01:52:15 AM 40.5126 158.0219 251° West 462 532 36,000  Level FlightAware Transoceanic
Thu 01:53:15 AM 40.4713 157.8617 251° West 462 532 36,000  Level FlightAware Transoceanic
Thu 01:54:15 AM 40.4298 157.7017 251° West 462 532 36,000  Level FlightAware Transoceanic
Thu 01:55:15 AM 40.3881 157.5419 251° West 462 532 36,000  Level FlightAware Transoceanic
Thu 01:56:15 AM 40.3462 157.3823 251° West 462 532 36,000  Level FlightAware Transoceanic
Thu 01:57:15 AM 40.3040 157.2229 251° West 462 532 36,000  Level FlightAware Transoceanic
Thu 01:58:15 AM 40.2617 157.0637 251° West 462 532 36,000  Level FlightAware Transoceanic
Thu 01:59:15 AM 40.2191 156.9047 251° West 462 532 36,000  Level FlightAware Transoceanic
Thu 02:00:15 AM 40.1763 156.7459 251° West 462 532 36,000  Level FlightAware Transoceanic
Thu 02:01:15 AM 40.1332 156.5873 250° West 462 532 36,000  Level FlightAware Transoceanic
Thu 02:02:15 AM 40.0900 156.4289 250° West 462 532 36,000  Level FlightAware Transoceanic
Thu 02:03:15 AM 40.0466 156.2708 250° West 462 532 36,000  Level FlightAware Transoceanic
Thu 02:04:15 AM 40.0029 156.1128 250° West 462 532 36,000  Level FlightAware Transoceanic
Thu 02:05:15 AM 39.9590 155.9550 250° West 462 532 36,000  Level FlightAware Transoceanic
Thu 02:06:15 AM 39.9149 155.7974 250° West 462 532 36,000  Level FlightAware Transoceanic
Thu 02:07:15 AM 39.8706 155.6400 250° West 462 532 36,000  Level FlightAware Transoceanic
Thu 02:08:15 AM 39.8261 155.4828 250° West 462 532 36,000  Level FlightAware Transoceanic
Thu 02:09:15 AM 39.7813 155.3258 250° West 462 532 36,000  Level FlightAware Transoceanic
Thu 02:10:15 AM 39.7364 155.1691 249° West 462 532 36,000  Level FlightAware Transoceanic
Thu 02:11:15 AM 39.6912 155.0125 249° West 462 532 36,000  Level FlightAware Transoceanic
Thu 02:12:15 AM 39.6459 154.8562 249° West 462 532 36,000  Level FlightAware Transoceanic
Thu 02:13:15 AM 39.6003 154.7000 249° West 462 532 36,000  Level FlightAware Transoceanic
Thu 02:14:15 AM 39.5545 154.5440 249° West 462 532 36,000  Level FlightAware Transoceanic
Thu 02:15:15 AM 39.5085 154.3883 249° West 462 532 36,000  Level FlightAware Transoceanic
Thu 02:16:15 AM 39.4623 154.2328 249° West 462 532 36,000  Level FlightAware Transoceanic
Thu 02:17:15 AM 39.4159 154.0774 249° West 462 532 36,000  Level FlightAware Transoceanic
Thu 02:18:15 AM 39.3693 153.9223 249° West 462 532 36,000  Level FlightAware Transoceanic
Thu 02:19:15 AM 39.3225 153.7674 249° West 462 532 36,000  Level FlightAware Transoceanic
Thu 02:20:15 AM 39.2755 153.6127 249° West 462 532 36,000  Level FlightAware Transoceanic
Thu 02:21:15 AM 39.2282 153.4582 248° West 462 532 36,000  Level FlightAware Transoceanic
Thu 02:22:15 AM 39.1808 153.3039 248° West 462 532 36,000  Level FlightAware Transoceanic
Thu 02:23:15 AM 39.1332 153.1498 248° West 462 532 36,000  Level FlightAware Transoceanic
Thu 02:24:15 AM 39.0854 152.9959 248° West 462 532 36,000  Level FlightAware Transoceanic
Thu 02:25:15 AM 39.0373 152.8423 248° West 462 532 36,000  Level FlightAware Transoceanic
Thu 02:26:15 AM 38.9891 152.6888 248° West 462 532 36,000  Level FlightAware Transoceanic
Thu 02:27:15 AM 38.9406 152.5356 248° West 462 532 36,000  Level FlightAware Transoceanic
Thu 02:28:15 AM 38.8920 152.3825 248° West 462 532 36,000  Level FlightAware Transoceanic
Thu 02:29:15 AM 38.8432 152.2297 248° West 462 532 36,000  Level FlightAware Transoceanic
Thu 02:30:15 AM 38.7941 152.0771 248° West 462 532 36,000  Level FlightAware Transoceanic
Thu 02:31:15 AM 38.7449 151.9247 247° West 462 532 36,000  Level FlightAware Transoceanic
Thu 02:32:15 AM 38.6954 151.7725 247° West 462 532 36,000  Level FlightAware Transoceanic
Thu 02:33:15 AM 38.6458 151.6205 247° West 462 532 36,000  Level FlightAware Transoceanic
Thu 02:34:15 AM 38.5960 151.4687 247° West 462 532 36,000  Level FlightAware Transoceanic
Thu 02:35:15 AM 38.5460 151.3172 247° West 462 532 36,000  Level FlightAware Transoceanic
Thu 02:36:15 AM 38.4957 151.1658 247° West 462 532 36,000  Level FlightAware Transoceanic
Thu 02:37:15 AM 38.4453 151.0147 247° West 462 532 36,000  Level FlightAware Transoceanic
Thu 02:38:15 AM 38.3947 150.8637 247° West 462 532 36,000  Level FlightAware Transoceanic
Thu 02:39:15 AM 38.3439 150.7130 247° West 462 532 36,000  Level FlightAware Transoceanic
Thu 02:40:15 AM 38.2929 150.5625 247° West 462 532 36,000  Level FlightAware Transoceanic
Thu 02:41:15 AM 38.2417 150.4122 247° West 462 532 36,000  Level FlightAware Transoceanic
Thu 02:42:15 AM 38.1904 150.2621 246° West 462 532 36,000  Level FlightAware Transoceanic
Thu 02:43:15 AM 38.1388 150.1123 286° West 462 532 36,000  Level FlightAware Transoceanic
Thu 02:44:15 AM 38.1668 149.9843 253° West  Level FlightAware Approximate
Thu 02:45:15 AM 38.1318 149.8405 253° West  Level FlightAware Approximate
Thu 02:46:15 AM 38.0967 149.6969 253° West  Level FlightAware Approximate
Thu 02:47:15 AM 38.0614 149.5534 253° West  Level FlightAware Approximate
Thu 02:48:15 AM 38.0259 149.4100 253° West  Level FlightAware Approximate
Thu 02:49:15 AM 37.9902 149.2668 252° West  Level FlightAware Approximate
Thu 02:50:15 AM 37.9544 149.1237 252° West  Level FlightAware Approximate
Thu 02:51:15 AM 37.9184 148.9808 252° West  Level FlightAware Approximate
Thu 02:52:15 AM 37.8822 148.8380 252° West  Level FlightAware Approximate
Thu 02:53:15 AM 37.8458 148.6953 252° West  Level FlightAware Approximate
Thu 02:54:15 AM 37.8093 148.5528 252° West  Level FlightAware Approximate
Thu 02:55:15 AM 37.7726 148.4104 252° West  Level FlightAware Approximate
Thu 02:56:15 AM 37.7357 148.2682 252° West  Level FlightAware Approximate
Thu 02:57:15 AM 37.6987 148.1261 252° West  Level FlightAware Approximate
Thu 02:58:15 AM 37.6615 147.9841 252° West  Level FlightAware Approximate
Thu 02:59:15 AM 37.6241 147.8423 252° West  Level FlightAware Approximate
Thu 03:00:15 AM 37.5866 147.7007 251° West  Level FlightAware Approximate
Thu 03:01:15 AM 37.5488 147.5591 251° West  Level FlightAware Approximate
Thu 03:02:15 AM 37.5109 147.4178 251° West  Level FlightAware Approximate
Thu 03:03:15 AM 37.4729 147.2765 251° West  Level FlightAware Approximate
Thu 03:04:15 AM 37.4347 147.1354 251° West  Level FlightAware Approximate
Thu 03:05:15 AM 37.3963 146.9945 251° West  Level FlightAware Approximate
Thu 03:06:15 AM 37.3577 146.8537 251° West  Level FlightAware Approximate
Thu 03:07:15 AM 37.3190 146.7130 251° West  Level FlightAware Approximate
Thu 03:08:15 AM 37.2801 146.5725 251° West  Level FlightAware Approximate
Thu 03:09:15 AM 37.2410 146.4321 251° West  Level FlightAware Approximate
Thu 03:10:15 AM 37.2018 146.2919 251° West  Level FlightAware Approximate
Thu 03:11:15 AM 37.1624 146.1518 252° West  Level FlightAware Approximate
Thu 03:12:15 AM 37.1251 146.0109 252° West  Level FlightAware Approximate
Thu 03:13:15 AM 37.0877 145.8702 252° West  Level FlightAware Approximate
Thu 03:14:15 AM 37.0501 145.7295 251° West  Level FlightAware Approximate
Thu 03:15:15 AM 37.0123 145.5890 255° West  Level FlightAware Approximate
Thu 03:16:15 AM 36.9811 145.4461 255° West  Level FlightAware Approximate
Thu 03:17:15 AM 36.9498 145.3032 255° West  Level FlightAware Approximate
Thu 03:18:15 AM 36.9183 145.1605 255° West  Level FlightAware Approximate
Thu 03:19:15 AM 36.8866 145.0179 254° West  Level FlightAware Approximate
Thu 03:20:15 AM 36.8547 144.8752 254° West  Level FlightAware Approximate
Thu 03:21:15 AM 36.8227 144.7326 254° West  Level FlightAware Approximate
Thu 03:22:15 AM 36.7904 144.5902 254° West  Level FlightAware Approximate
Thu 03:23:15 AM 36.7580 144.4478 254° West  Level FlightAware Approximate
Thu 03:24:15 AM 36.7255 144.3056 254° West  Level FlightAware Approximate
Thu 03:25:15 AM 36.6927 144.1635 254° West  Level FlightAware Approximate
Thu 03:26:15 AM 36.6598 144.0215 254° West  Level FlightAware Approximate
Thu 03:27:15 AM 36.6268 143.8796 254° West  Level FlightAware Approximate
Thu 03:28:15 AM 36.5936 143.7381 254° West  Level FlightAware Approximate
Thu 03:29:15 AM 36.5602 143.5967 254° West  Level FlightAware Approximate
Thu 03:30:15 AM 36.5267 143.4554 254° West  Level FlightAware Approximate
Thu 03:31:15 AM 36.4930 143.3143 253° West  Level FlightAware Approximate
Thu 03:32:15 AM 36.4591 143.1733 253° West  Level FlightAware Approximate
Thu 03:33:15 AM 36.4251 143.0324 253° West  Level FlightAware Approximate
Thu 03:34:15 AM 36.3909 142.8916 253° West  Level FlightAware Approximate
Thu 03:35:15 AM 36.3566 142.7509 253° West  Level FlightAware Approximate
Thu 03:36:15 AM 36.3220 142.6104 253° West  Level FlightAware Approximate
Thu 03:37:15 AM 36.2874 142.4700 253° West  Level FlightAware Approximate
Thu 03:38:15 AM 36.2525 142.3297 253° West  Level FlightAware Approximate
Thu 03:39:15 AM 36.2175 142.1895 253° West  Level FlightAware Approximate
Thu 03:40:15 AM 36.1823 142.0495 253° West  Level FlightAware Approximate
Thu 03:41:15 AM 36.1470 141.9096 253° West  Level FlightAware Approximate
Thu 03:42:15 AM 36.1115 141.7698 253° West  Level FlightAware Approximate
Thu 03:43:15 AM 36.0759 141.6306 252° West  Level FlightAware Approximate
Thu 03:44:15 AM 36.0402 141.4915 252° West  Level FlightAware Approximate
Thu 03:45:15 AM 36.0043 141.3526 252° West  Level FlightAware Approximate
Thu 03:46:15 AM 35.9683 141.2137 252° West  Level FlightAware Approximate
Thu 03:47:15 AM 35.9320 141.0746 252° West  Level FlightAware Approximate
Thu 03:48:15 AM 35.8955 140.9356 228° Southwest  Level FlightAware Approximate
Thu 03:49:15 AM 35.8161 140.8285 261° West  Level FlightAware Approximate
Thu 03:50:15 AM 35.7975 140.6844 260° West  Level FlightAware Approximate
Thu 03:51:15 AM 35.7763 140.5413 259° West  Level FlightAware Approximate
Thu 03:52:15 AM 35.7540 140.3995 315° West  Level FlightAware Approximate
Thu 03:53:15 AM 35.8376 140.2968 87° East  Level Estimated
Thu 03:54:15 AM 35.9001 142.3323 266° West  Level FlightAware Approximate
Thu 03:55:15 AM 35.8908 142.1871 265° West  Level FlightAware Approximate
Thu 03:56:15 AM 35.8814 142.0419 265° West  Level FlightAware Approximate
Thu 03:57:15 AM 35.8718 141.8968 265° West  Level FlightAware Approximate
Thu 03:58:15 AM 35.8621 141.7517 265° West  Level FlightAware Approximate
Thu 03:59:15 AM 35.8522 141.6067 265° West  Level FlightAware Approximate
Thu 04:00:15 AM 35.8421 141.4617 265° West  Level FlightAware Approximate
Thu 04:01:15 AM 35.8318 141.3167 265° West  Level FlightAware Approximate
Thu 04:02:15 AM 35.8213 141.1718 265° West  Level FlightAware Approximate
Thu 04:03:15 AM 35.8107 141.0269 265° West  Level FlightAware Approximate

Login

Don't have an account? Register now (free) for customized features, flight alerts, and more!